createdAt,value
2022-12-01T00:01:39.926Z,89.79
2022-12-01T00:06:36.392Z,89.69
2022-12-01T00:11:31.503Z,89.30
2022-12-01T00:16:25.102Z,89.38
2022-12-01T00:21:20.291Z,89.63
2022-12-01T00:26:20.735Z,89.20
2022-12-01T00:31:31.169Z,89.05
2022-12-01T00:36:28.990Z,89.09
2022-12-01T00:41:36.841Z,89.45
2022-12-01T00:46:39.422Z,89.38
2022-12-01T00:51:36.759Z,89.41
2022-12-01T00:56:33.865Z,89.08
2022-12-01T01:01:29.211Z,88.56
2022-12-01T01:06:27.248Z,88.20
2022-12-01T01:11:20.859Z,87.79
2022-12-01T01:16:16.815Z,86.75
2022-12-01T01:21:14.203Z,87.09
2022-12-01T01:26:12.066Z,86.70
2022-12-01T01:31:07.600Z,86.44
2022-12-01T01:36:04.628Z,86.32
2022-12-01T01:40:58.344Z,85.92
2022-12-01T01:45:53.142Z,86.48
2022-12-01T01:50:49.032Z,86.51
2022-12-01T01:55:42.649Z,86.85
2022-12-01T02:00:37.219Z,87.27
2022-12-01T02:05:35.496Z,87.78
2022-12-01T02:10:39.264Z,87.61
2022-12-01T02:15:38.887Z,88.22
2022-12-01T02:21:13.031Z,88.38
2022-12-01T02:26:27.702Z,88.69
2022-12-01T02:31:25.960Z,89.18
2022-12-01T02:36:31.562Z,89.29
2022-12-01T02:41:29.697Z,89.61
2022-12-01T02:46:34.117Z,89.68
2022-12-01T02:51:31.354Z,89.81
2022-12-01T02:56:25.240Z,89.88
2022-12-01T03:01:32.944Z,90.02
2022-12-01T03:06:38.356Z,90.18
2022-12-01T03:11:43.808Z,89.77
2022-12-01T03:16:48.751Z,90.16
2022-12-01T03:21:49.717Z,90.00
2022-12-01T03:26:47.575Z,90.40
2022-12-01T03:31:49.781Z,90.95
2022-12-01T03:36:48.264Z,91.11
2022-12-01T03:41:48.978Z,91.17
2022-12-01T03:46:49.567Z,91.23
2022-12-01T03:51:51.440Z,90.96
2022-12-01T03:56:48.059Z,90.95
2022-12-01T04:01:42.049Z,90.73
2022-12-01T04:06:37.475Z,90.85
2022-12-01T04:11:48.456Z,91.25
2022-12-01T04:16:41.986Z,91.13
2022-12-01T04:21:36.922Z,90.53
2022-12-01T04:26:32.462Z,90.76
2022-12-01T04:31:33.433Z,90.16
2022-12-01T04:36:28.364Z,90.26
2022-12-01T04:41:23.382Z,90.22
2022-12-01T04:46:17.180Z,90.04
2022-12-01T04:51:10.934Z,90.80
2022-12-01T04:56:05.708Z,90.78
2022-12-01T05:01:06.669Z,91.21
2022-12-01T05:06:04.507Z,91.47
2022-12-01T05:11:02.472Z,92.17
2022-12-01T05:16:31.363Z,92.89
2022-12-01T05:21:31.002Z,93.39
2022-12-01T05:26:26.284Z,93.51
2022-12-01T05:31:31.436Z,93.92
2022-12-01T05:36:38.539Z,94.53
2022-12-01T05:41:54.183Z,94.88
2022-12-01T05:46:50.778Z,95.32
2022-12-01T05:51:50.277Z,95.00
2022-12-01T05:56:49.773Z,95.30
2022-12-01T06:01:57.028Z,95.71
2022-12-01T06:06:59.484Z,96.20
2022-12-01T06:11:57.903Z,96.48
2022-12-01T06:17:00.883Z,96.96
2022-12-01T06:21:54.288Z,96.73
2022-12-01T06:26:48.047Z,96.23
2022-12-01T06:31:41.641Z,97.12
2022-12-01T06:36:36.853Z,97.21
2022-12-01T06:41:30.074Z,97.34
2022-12-01T06:46:23.286Z,97.73
2022-12-01T06:51:16.648Z,97.46
2022-12-01T06:56:11.207Z,97.76
2022-12-01T07:01:09.945Z,97.75
2022-12-01T07:06:03.337Z,97.85
2022-12-01T07:11:00.286Z,97.86
2022-12-01T07:15:54.908Z,98.25
2022-12-01T07:20:47.997Z,98.25
2022-12-01T07:25:41.182Z,98.55
2022-12-01T07:30:34.389Z,98.21
2022-12-01T07:35:28.960Z,98.11
2022-12-01T07:40:22.101Z,97.78
2022-12-01T07:45:15.267Z,97.57
2022-12-01T07:50:09.445Z,97.59
2022-12-01T07:55:03.919Z,96.92
2022-12-01T07:59:57.355Z,96.47
2022-12-01T08:04:50.475Z,96.01
2022-12-01T08:09:46.929Z,95.72
2022-12-01T08:14:41.840Z,95.92
2022-12-01T08:19:34.971Z,96.05
2022-12-01T08:24:28.185Z,95.99
2022-12-01T08:29:21.314Z,95.60
2022-12-01T08:34:15.785Z,95.48
2022-12-01T08:39:10.013Z,95.94
2022-12-01T08:44:03.299Z,95.81
2022-12-01T08:48:58.005Z,95.41
2022-12-01T08:53:53.041Z,96.00
2022-12-01T08:58:48.668Z,95.44
2022-12-01T09:03:44.781Z,95.62
2022-12-01T09:08:38.460Z,95.72
2022-12-01T09:13:34.156Z,95.34
2022-12-01T09:18:27.790Z,95.36
2022-12-01T09:23:21.847Z,95.44
2022-12-01T09:28:15.175Z,95.15
2022-12-01T09:33:09.772Z,95.50
2022-12-01T09:38:04.562Z,95.42
2022-12-01T09:42:59.552Z,95.82
2022-12-01T09:47:55.443Z,96.06
2022-12-01T09:52:54.365Z,95.60
2022-12-01T09:57:49.751Z,96.10
2022-12-01T10:02:49.329Z,96.33
2022-12-01T10:07:50.001Z,96.41
2022-12-01T10:12:45.341Z,95.60
2022-12-01T10:17:46.758Z,96.14
2022-12-01T10:23:18.410Z,96.55
2022-12-01T10:28:28.633Z,96.63
2022-12-01T10:33:25.523Z,96.76
2022-12-01T10:38:25.606Z,96.96
2022-12-01T10:43:20.233Z,96.58
2022-12-01T10:48:16.784Z,96.36
2022-12-01T10:53:27.845Z,97.14
2022-12-01T10:58:22.548Z,96.84
2022-12-01T11:03:22.813Z,96.95
2022-12-01T11:08:24.468Z,97.05
2022-12-01T11:13:24.162Z,97.14
2022-12-01T11:18:23.380Z,97.50
2022-12-01T11:23:26.461Z,97.43
2022-12-01T11:28:23.218Z,97.27
2022-12-01T11:33:17.496Z,97.47
2022-12-01T11:38:30.449Z,98.12
2022-12-01T11:43:30.105Z,97.23
2022-12-01T11:48:28.451Z,97.49
2022-12-01T11:53:28.998Z,97.46
2022-12-01T11:58:22.109Z,97.55
2022-12-01T12:03:24.874Z,97.81
2022-12-01T12:08:32.564Z,98.05
2022-12-01T12:14:00.715Z,97.67
2022-12-01T12:19:10.462Z,97.93
2022-12-01T12:24:37.381Z,97.70
2022-12-01T12:29:49.750Z,97.59
2022-12-01T12:34:52.472Z,97.22
2022-12-01T12:40:06.747Z,97.24
2022-12-01T12:45:07.411Z,96.90
2022-12-01T12:50:15.990Z,97.26
2022-12-01T12:55:19.974Z,97.10
2022-12-01T13:00:20.919Z,96.66
2022-12-01T13:05:23.159Z,96.85
2022-12-01T13:10:26.881Z,96.69
2022-12-01T13:15:22.048Z,96.68
2022-12-01T13:20:19.293Z,96.99
2022-12-01T13:25:15.334Z,96.74
2022-12-01T13:30:20.254Z,96.56
2022-12-01T13:35:28.993Z,96.55
2022-12-01T13:40:36.048Z,96.65
2022-12-01T13:45:34.385Z,96.61
2022-12-01T13:50:57.568Z,96.41
2022-12-01T13:55:58.700Z,96.33
2022-12-01T14:00:53.933Z,96.22
2022-12-01T14:05:57.340Z,96.23
2022-12-01T14:10:54.359Z,95.41
2022-12-01T14:15:55.203Z,96.28
2022-12-01T14:20:52.827Z,96.36
2022-12-01T14:26:01.094Z,96.50
2022-12-01T14:31:07.587Z,96.21
2022-12-01T14:36:03.820Z,96.18
2022-12-01T14:40:58.734Z,96.04
2022-12-01T14:46:04.445Z,96.12
2022-12-01T14:51:20.512Z,96.37
2022-12-01T14:56:19.421Z,96.59
2022-12-01T15:01:16.977Z,96.76
2022-12-01T15:06:14.360Z,96.73
2022-12-01T15:11:14.597Z,96.95
2022-12-01T15:16:16.888Z,97.40
2022-12-01T15:21:15.831Z,97.57
2022-12-01T15:26:20.293Z,98.08
2022-12-01T15:31:16.069Z,97.65
2022-12-01T15:36:10.403Z,97.51
2022-12-01T15:41:28.467Z,97.59
2022-12-01T15:46:27.476Z,97.75
2022-12-01T15:51:26.893Z,97.85
2022-12-01T15:56:28.831Z,98.10
2022-12-01T16:01:30.660Z,98.27
2022-12-01T16:06:28.492Z,98.42
2022-12-01T16:11:25.348Z,98.19
2022-12-01T16:16:45.341Z,98.30
2022-12-01T16:21:46.445Z,98.98
2022-12-01T16:26:49.221Z,98.84
2022-12-01T16:32:12.551Z,99.13
2022-12-01T16:36:57.842Z,99.22
2022-12-01T16:41:53.818Z,99.38
2022-12-01T16:46:48.677Z,98.95
2022-12-01T16:51:55.530Z,99.05
2022-12-01T16:56:52.872Z,99.35
2022-12-01T17:01:46.405Z,99.16
2022-12-01T17:06:41.299Z,99.96
2022-12-01T17:11:34.636Z,99.31
2022-12-01T17:16:31.205Z,99.85
2022-12-01T17:21:24.981Z,99.76
2022-12-01T17:26:21.666Z,99.66
2022-12-01T17:31:16.087Z,99.65
2022-12-01T17:36:13.931Z,99.82
2022-12-01T17:41:10.546Z,99.58
2022-12-01T17:46:08.537Z,100.00
2022-12-01T17:51:02.084Z,99.72
2022-12-01T17:55:57.645Z,99.59
2022-12-01T18:00:52.220Z,99.77
2022-12-01T18:05:55.108Z,100.00
2022-12-01T18:10:48.552Z,100.00
2022-12-01T18:15:42.065Z,100.00
2022-12-01T18:20:35.522Z,100.00
2022-12-01T18:25:30.554Z,100.00
2022-12-01T18:30:24.135Z,100.00
2022-12-01T18:35:17.607Z,100.00
2022-12-01T18:40:12.486Z,99.96
2022-12-01T18:45:08.288Z,100.00
2022-12-01T18:50:01.723Z,99.87
2022-12-01T18:55:01.183Z,100.00
2022-12-01T18:59:54.813Z,100.00
2022-12-01T19:04:50.538Z,100.00
2022-12-01T19:09:44.357Z,100.00
2022-12-01T19:14:38.098Z,100.00
2022-12-01T19:19:37.159Z,100.00
2022-12-01T19:24:32.526Z,100.00
2022-12-01T19:29:26.620Z,100.00
2022-12-01T19:34:21.773Z,100.00
2022-12-01T19:39:15.137Z,100.00
2022-12-01T19:44:13.690Z,100.00
2022-12-01T19:49:07.502Z,100.00
2022-12-01T19:54:00.926Z,100.00
2022-12-01T19:58:57.693Z,100.00
2022-12-01T20:03:57.032Z,100.00
2022-12-01T20:08:51.223Z,100.00
2022-12-01T20:13:46.371Z,100.00
2022-12-01T20:18:44.212Z,100.00
2022-12-01T20:23:39.627Z,100.00
2022-12-01T20:28:39.215Z,100.00
2022-12-01T20:33:32.836Z,100.00
2022-12-01T20:38:27.920Z,100.00
2022-12-01T20:43:25.642Z,100.00
2022-12-01T20:48:19.119Z,100.00
2022-12-01T20:53:12.604Z,100.00
2022-12-01T20:58:08.726Z,100.00
2022-12-01T21:03:03.895Z,100.00
2022-12-01T21:07:57.587Z,100.00
2022-12-01T21:13:15.131Z,100.00
2022-12-01T21:18:19.153Z,100.00
2022-12-01T21:23:14.137Z,100.00
2022-12-01T21:28:19.390Z,100.00
2022-12-01T21:33:22.315Z,100.00
2022-12-01T21:38:21.664Z,100.00
2022-12-01T21:43:23.093Z,100.00
2022-12-01T21:48:21.378Z,100.00
2022-12-01T21:53:19.567Z,100.00
2022-12-01T21:58:34.652Z,100.00
2022-12-01T22:03:33.213Z,100.00
2022-12-01T22:08:32.766Z,100.00
2022-12-01T22:13:31.402Z,100.00
2022-12-01T22:18:30.818Z,100.00
2022-12-01T22:23:33.169Z,100.00
2022-12-01T22:28:28.836Z,100.00
2022-12-01T22:33:25.259Z,100.00
2022-12-01T22:38:31.535Z,100.00
2022-12-01T22:43:30.345Z,100.00
2022-12-01T22:48:40.099Z,100.00
2022-12-01T22:53:35.018Z,100.00
2022-12-01T22:58:32.800Z,100.00
2022-12-01T23:03:27.926Z,100.00
2022-12-01T23:08:23.612Z,100.00
2022-12-01T23:13:23.111Z,100.00
2022-12-01T23:18:19.868Z,100.00
2022-12-01T23:23:15.824Z,100.00
2022-12-01T23:28:11.769Z,100.00
2022-12-01T23:33:16.844Z,100.00
2022-12-01T23:38:16.501Z,100.00
2022-12-01T23:43:17.015Z,100.00
2022-12-01T23:48:16.791Z,100.00
2022-12-01T23:53:23.612Z,100.00
2022-12-01T23:58:16.850Z,100.00
